sensor_id;sensor_type;location;lat;lon;timestamp;pressure;altitude;pressure_sealevel;temperature;humidity
65756;BME280;69208;47.502;18.940;2023-09-18T00:00:46;98453.25;;;19.30;81.73
65756;BME280;69208;47.502;18.940;2023-09-18T00:01:49;98460.63;;;19.37;81.51
65756;BME280;69208;47.502;18.940;2023-09-18T00:02:52;98456.88;;;19.38;81.28
65756;BME280;69208;47.502;18.940;2023-09-18T00:03:56;98451.19;;;19.40;81.13
65756;BME280;69208;47.502;18.940;2023-09-18T00:05:00;98457.97;;;19.37;81.27
65756;BME280;69208;47.502;18.940;2023-09-18T00:06:03;98452.78;;;19.41;81.06
65756;BME280;69208;47.502;18.940;2023-09-18T00:07:06;98464.41;;;19.36;81.25
65756;BME280;69208;47.502;18.940;2023-09-18T00:08:09;98450.19;;;19.44;80.78
65756;BME280;69208;47.502;18.940;2023-09-18T00:09:12;98446.66;;;19.40;80.89
65756;BME280;69208;47.502;18.940;2023-09-18T00:10:16;98459.53;;;19.38;81.14
65756;BME280;69208;47.502;18.940;2023-09-18T00:11:20;98449.31;;;19.40;80.94
65756;BME280;69208;47.502;18.940;2023-09-18T00:12:22;98459.44;;;19.35;81.27
65756;BME280;69208;47.502;18.940;2023-09-18T00:13:25;98448.38;;;19.32;81.34
65756;BME280;69208;47.502;18.940;2023-09-18T00:14:28;98443.59;;;19.38;81.12
65756;BME280;69208;47.502;18.940;2023-09-18T00:15:31;98441.25;;;19.37;81.20
65756;BME280;69208;47.502;18.940;2023-09-18T00:16:34;98438.28;;;19.38;81.08
65756;BME280;69208;47.502;18.940;2023-09-18T00:17:58;98437.50;;;19.38;81.14
65756;BME280;69208;47.502;18.940;2023-09-18T00:19:01;98446.16;;;19.35;81.27
65756;BME280;69208;47.502;18.940;2023-09-18T00:20:05;98444.53;;;19.30;81.35
65756;BME280;69208;47.502;18.940;2023-09-18T00:21:10;98444.84;;;19.28;81.55
65756;BME280;69208;47.502;18.940;2023-09-18T00:22:14;98435.03;;;19.29;81.45
65756;BME280;69208;47.502;18.940;2023-09-18T00:23:16;98437.31;;;19.30;81.39
65756;BME280;69208;47.502;18.940;2023-09-18T00:24:20;98445.13;;;19.23;81.73
65756;BME280;69208;47.502;18.940;2023-09-18T00:25:23;98440.41;;;19.32;81.36
65756;BME280;69208;47.502;18.940;2023-09-18T00:26:26;98450.97;;;19.29;81.46
65756;BME280;69208;47.502;18.940;2023-09-18T00:27:29;98439.22;;;19.30;81.48
65756;BME280;69208;47.502;18.940;2023-09-18T00:28:32;98443.56;;;19.22;81.77
65756;BME280;69208;47.502;18.940;2023-09-18T00:29:35;98449.00;;;19.26;81.57
65756;BME280;69208;47.502;18.940;2023-09-18T00:30:42;98451.28;;;19.27;81.45
65756;BME280;69208;47.502;18.940;2023-09-18T00:31:49;98453.50;;;19.25;81.70
65756;BME280;69208;47.502;18.940;2023-09-18T00:32:52;98453.44;;;19.22;81.97
65756;BME280;69208;47.502;18.940;2023-09-18T00:33:55;98440.91;;;19.22;81.84
65756;BME280;69208;47.502;18.940;2023-09-18T00:34:58;98449.75;;;19.26;81.72
65756;BME280;69208;47.502;18.940;2023-09-18T00:36:00;98448.03;;;19.18;81.90
65756;BME280;69208;47.502;18.940;2023-09-18T00:37:03;98449.41;;;19.12;82.30
65756;BME280;69208;47.502;18.940;2023-09-18T00:38:06;98436.13;;;19.12;82.37
65756;BME280;69208;47.502;18.940;2023-09-18T00:39:10;98441.34;;;19.08;82.43
65756;BME280;69208;47.502;18.940;2023-09-18T00:40:13;98445.53;;;19.09;82.41
65756;BME280;69208;47.502;18.940;2023-09-18T00:41:16;98444.00;;;19.08;82.48
65756;BME280;69208;47.502;18.940;2023-09-18T00:42:18;98432.19;;;19.06;82.60
65756;BME280;69208;47.502;18.940;2023-09-18T00:43:21;98440.06;;;19.02;82.90
65756;BME280;69208;47.502;18.940;2023-09-18T00:44:24;98445.44;;;19.06;82.60
65756;BME280;69208;47.502;18.940;2023-09-18T00:45:29;98429.97;;;19.08;82.46
65756;BME280;69208;47.502;18.940;2023-09-18T00:46:32;98433.78;;;19.10;82.39
65756;BME280;69208;47.502;18.940;2023-09-18T00:47:36;98433.03;;;19.10;82.34
65756;BME280;69208;47.502;18.940;2023-09-18T00:48:40;98431.13;;;19.10;82.34
65756;BME280;69208;47.502;18.940;2023-09-18T00:49:46;98442.19;;;19.13;82.25
65756;BME280;69208;47.502;18.940;2023-09-18T00:50:50;98440.59;;;19.08;82.43
65756;BME280;69208;47.502;18.940;2023-09-18T00:51:52;98436.13;;;19.12;82.17
65756;BME280;69208;47.502;18.940;2023-09-18T00:52:56;98440.75;;;19.15;81.98
65756;BME280;69208;47.502;18.940;2023-09-18T00:53:59;98442.88;;;19.09;82.31
65756;BME280;69208;47.502;18.940;2023-09-18T00:55:02;98442.78;;;19.06;82.52
65756;BME280;69208;47.502;18.940;2023-09-18T00:56:05;98445.53;;;19.09;82.25
65756;BME280;69208;47.502;18.940;2023-09-18T00:57:09;98444.00;;;19.08;82.33
65756;BME280;69208;47.502;18.940;2023-09-18T00:58:13;98441.59;;;19.03;82.62
65756;BME280;69208;47.502;18.940;2023-09-18T00:59:16;98451.97;;;19.08;82.49
65756;BME280;69208;47.502;18.940;2023-09-18T01:00:19;98443.25;;;19.08;82.49
65756;BME280;69208;47.502;18.940;2023-09-18T01:01:22;98441.66;;;19.07;82.50
65756;BME280;69208;47.502;18.940;2023-09-18T01:02:26;98440.13;;;19.06;82.66
65756;BME280;69208;47.502;18.940;2023-09-18T01:03:30;98441.94;;;19.02;82.75
65756;BME280;69208;47.502;18.940;2023-09-18T01:04:34;98439.78;;;19.07;82.54
65756;BME280;69208;47.502;18.940;2023-09-18T01:05:36;98437.94;;;19.08;82.60
65756;BME280;69208;47.502;18.940;2023-09-18T01:06:40;98434.22;;;19.13;82.24
65756;BME280;69208;47.502;18.940;2023-09-18T01:07:43;98433.19;;;19.01;82.81
65756;BME280;69208;47.502;18.940;2023-09-18T01:08:47;98439.37;;;19.05;82.72
65756;BME280;69208;47.502;18.940;2023-09-18T01:09:54;98440.06;;;19.02;82.77
65756;BME280;69208;47.502;18.940;2023-09-18T01:11:05;98437.56;;;19.09;82.39
65756;BME280;69208;47.502;18.940;2023-09-18T01:13:30;98432.50;;;19.04;82.63
65756;BME280;69208;47.502;18.940;2023-09-18T01:15:54;98428.84;;;19.09;82.48
65756;BME280;69208;47.502;18.940;2023-09-18T01:17:01;98431.81;;;19.07;82.66
65756;BME280;69208;47.502;18.940;2023-09-18T01:18:07;98429.59;;;18.94;83.21
65756;BME280;69208;47.502;18.940;2023-09-18T01:19:11;98425.91;;;18.98;83.08
65756;BME280;69208;47.502;18.940;2023-09-18T01:20:14;98428.22;;;19.00;83.04
65756;BME280;69208;47.502;18.940;2023-09-18T01:21:20;98424.38;;;18.97;83.01
65756;BME280;69208;47.502;18.940;2023-09-18T01:22:23;98419.38;;;18.96;83.20
65756;BME280;69208;47.502;18.940;2023-09-18T01:23:26;98420.59;;;18.98;83.01
65756;BME280;69208;47.502;18.940;2023-09-18T01:24:30;98417.84;;;19.10;82.28
65756;BME280;69208;47.502;18.940;2023-09-18T01:25:34;98416.84;;;19.15;82.07
65756;BME280;69208;47.502;18.940;2023-09-18T01:26:37;98419.25;;;19.20;81.76
65756;BME280;69208;47.502;18.940;2023-09-18T01:27:40;98413.88;;;19.17;81.92
65756;BME280;69208;47.502;18.940;2023-09-18T01:28:44;98419.41;;;19.12;82.27
65756;BME280;69208;47.502;18.940;2023-09-18T01:29:47;98414.53;;;19.14;82.14
65756;BME280;69208;47.502;18.940;2023-09-18T01:30:51;98424.81;;;19.15;82.08
65756;BME280;69208;47.502;18.940;2023-09-18T01:31:55;98413.94;;;19.20;81.84
65756;BME280;69208;47.502;18.940;2023-09-18T01:32:59;98423.59;;;19.13;82.20
65756;BME280;69208;47.502;18.940;2023-09-18T01:34:01;98414.03;;;19.08;82.45
65756;BME280;69208;47.502;18.940;2023-09-18T01:35:06;98418.91;;;19.06;82.59
65756;BME280;69208;47.502;18.940;2023-09-18T01:36:11;98418.13;;;19.05;82.55
65756;BME280;69208;47.502;18.940;2023-09-18T01:37:21;98420.09;;;19.08;82.44
65756;BME280;69208;47.502;18.940;2023-09-18T01:38:25;98426.09;;;19.05;82.57
65756;BME280;69208;47.502;18.940;2023-09-18T01:39:29;98425.22;;;19.01;82.95
65756;BME280;69208;47.502;18.940;2023-09-18T01:40:34;98423.00;;;19.03;82.81
65756;BME280;69208;47.502;18.940;2023-09-18T01:41:38;98423.16;;;18.95;83.17
65756;BME280;69208;47.502;18.940;2023-09-18T01:42:43;98421.34;;;18.99;83.11
65756;BME280;69208;47.502;18.940;2023-09-18T01:43:46;98427.09;;;19.01;82.94
65756;BME280;69208;47.502;18.940;2023-09-18T01:44:49;98420.25;;;19.00;82.95
65756;BME280;69208;47.502;18.940;2023-09-18T01:45:52;98422.25;;;19.03;82.72
65756;BME280;69208;47.502;18.940;2023-09-18T01:47:02;98419.50;;;18.99;83.06
65756;BME280;69208;47.502;18.940;2023-09-18T01:48:06;98413.75;;;18.97;83.29
65756;BME280;69208;47.502;18.940;2023-09-18T01:49:09;98418.28;;;18.97;83.37
65756;BME280;69208;47.502;18.940;2023-09-18T01:50:13;98415.87;;;18.92;83.56
65756;BME280;69208;47.502;18.940;2023-09-18T01:51:15;98421.97;;;18.92;83.55
65756;BME280;69208;47.502;18.940;2023-09-18T01:52:19;98415.87;;;18.92;83.51
65756;BME280;69208;47.502;18.940;2023-09-18T01:53:22;98416.41;;;18.97;83.27
65756;BME280;69208;47.502;18.940;2023-09-18T01:54:25;98416.03;;;18.99;83.17
65756;BME280;69208;47.502;18.940;2023-09-18T01:55:28;98419.06;;;18.97;83.30
65756;BME280;69208;47.502;18.940;2023-09-18T01:56:31;98414.66;;;18.89;83.94
65756;BME280;69208;47.502;18.940;2023-09-18T01:57:34;98410.03;;;18.86;83.83
65756;BME280;69208;47.502;18.940;2023-09-18T01:58:39;98408.84;;;18.83;84.07
65756;BME280;69208;47.502;18.940;2023-09-18T01:59:43;98412.62;;;18.82;84.19
65756;BME280;69208;47.502;18.940;2023-09-18T02:00:48;98415.72;;;18.84;84.15
65756;BME280;69208;47.502;18.940;2023-09-18T02:01:52;98410.13;;;18.90;83.98
65756;BME280;69208;47.502;18.940;2023-09-18T02:02:56;98414.81;;;18.80;84.37
65756;BME280;69208;47.502;18.940;2023-09-18T02:04:20;98419.91;;;18.85;84.07
65756;BME280;69208;47.502;18.940;2023-09-18T02:05:43;98413.28;;;18.79;84.41
65756;BME280;69208;47.502;18.940;2023-09-18T02:06:48;98417.88;;;18.67;85.29
65756;BME280;69208;47.502;18.940;2023-09-18T02:07:53;98420.06;;;18.64;85.54
65756;BME280;69208;47.502;18.940;2023-09-18T02:08:55;98412.88;;;18.65;85.57
65756;BME280;69208;47.502;18.940;2023-09-18T02:09:59;98411.91;;;18.57;85.92
65756;BME280;69208;47.502;18.940;2023-09-18T02:11:02;98416.28;;;18.50;86.55
65756;BME280;69208;47.502;18.940;2023-09-18T02:12:06;98414.47;;;18.54;86.59
65756;BME280;69208;47.502;18.940;2023-09-18T02:13:09;98416.56;;;18.60;86.08
65756;BME280;69208;47.502;18.940;2023-09-18T02:14:13;98405.28;;;18.63;85.91
65756;BME280;69208;47.502;18.940;2023-09-18T02:15:16;98403.69;;;18.75;85.31
65756;BME280;69208;47.502;18.940;2023-09-18T02:16:20;98410.09;;;18.74;85.71
65756;BME280;69208;47.502;18.940;2023-09-18T02:17:26;98406.91;;;18.68;85.75
65756;BME280;69208;47.502;18.940;2023-09-18T02:18:29;98405.38;;;18.67;86.00
65756;BME280;69208;47.502;18.940;2023-09-18T02:19:32;98407.50;;;18.61;86.23
65756;BME280;69208;47.502;18.940;2023-09-18T02:20:42;98409.69;;;18.59;86.63
65756;BME280;69208;47.502;18.940;2023-09-18T02:21:46;98408.84;;;18.55;86.79
65756;BME280;69208;47.502;18.940;2023-09-18T02:22:50;98403.19;;;18.57;86.70
65756;BME280;69208;47.502;18.940;2023-09-18T02:23:53;98413.38;;;18.55;86.75
65756;BME280;69208;47.502;18.940;2023-09-18T02:24:56;98406.19;;;18.55;86.69
65756;BME280;69208;47.502;18.940;2023-09-18T02:26:00;98419.78;;;18.54;86.94
65756;BME280;69208;47.502;18.940;2023-09-18T02:27:06;98414.63;;;18.45;87.33
65756;BME280;69208;47.502;18.940;2023-09-18T02:28:09;98414.75;;;18.36;87.76
65756;BME280;69208;47.502;18.940;2023-09-18T02:29:13;98413.56;;;18.34;88.05
65756;BME280;69208;47.502;18.940;2023-09-18T02:30:17;98412.44;;;18.35;88.19
65756;BME280;69208;47.502;18.940;2023-09-18T02:31:22;98412.69;;;18.30;88.39
65756;BME280;69208;47.502;18.940;2023-09-18T02:32:25;98408.28;;;18.34;88.21
65756;BME280;69208;47.502;18.940;2023-09-18T02:33:28;98419.19;;;18.32;88.21
65756;BME280;69208;47.502;18.940;2023-09-18T02:34:32;98403.97;;;18.29;88.45
65756;BME280;69208;47.502;18.940;2023-09-18T02:35:36;98418.66;;;18.27;88.61
65756;BME280;69208;47.502;18.940;2023-09-18T02:36:39;98414.16;;;18.15;89.15
65756;BME280;69208;47.502;18.940;2023-09-18T02:37:42;98418.16;;;18.09;89.55
65756;BME280;69208;47.502;18.940;2023-09-18T02:38:45;98418.50;;;18.07;89.70
65756;BME280;69208;47.502;18.940;2023-09-18T02:39:48;98414.50;;;18.01;90.17
65756;BME280;69208;47.502;18.940;2023-09-18T02:40:51;98415.16;;;18.23;89.06
65756;BME280;69208;47.502;18.940;2023-09-18T02:41:55;98411.06;;;18.13;89.40
65756;BME280;69208;47.502;18.940;2023-09-18T02:42:59;98414.63;;;18.05;90.04
65756;BME280;69208;47.502;18.940;2023-09-18T02:44:02;98418.81;;;18.06;89.89
65756;BME280;69208;47.502;18.940;2023-09-18T02:45:05;98403.62;;;18.59;86.19
65756;BME280;69208;47.502;18.940;2023-09-18T02:46:08;98413.72;;;18.81;84.84
65756;BME280;69208;47.502;18.940;2023-09-18T02:47:11;98410.09;;;18.74;85.38
65756;BME280;69208;47.502;18.940;2023-09-18T02:48:14;98415.09;;;18.63;86.08
65756;BME280;69208;47.502;18.940;2023-09-18T02:49:18;98409.59;;;18.56;86.55
65756;BME280;69208;47.502;18.940;2023-09-18T02:50:20;98411.72;;;18.50;86.81
65756;BME280;69208;47.502;18.940;2023-09-18T02:51:24;98412.09;;;18.49;87.24
65756;BME280;69208;47.502;18.940;2023-09-18T02:52:26;98413.84;;;18.45;87.43
65756;BME280;69208;47.502;18.940;2023-09-18T02:53:29;98423.16;;;18.38;87.74
65756;BME280;69208;47.502;18.940;2023-09-18T02:54:32;98422.84;;;18.28;88.66
65756;BME280;69208;47.502;18.940;2023-09-18T02:55:35;98421.31;;;18.27;88.58
65756;BME280;69208;47.502;18.940;2023-09-18T02:56:38;98416.22;;;18.22;88.62
65756;BME280;69208;47.502;18.940;2023-09-18T02:57:41;98416.03;;;18.14;89.00
65756;BME280;69208;47.502;18.940;2023-09-18T02:58:44;98420.66;;;18.17;88.96
65756;BME280;69208;47.502;18.940;2023-09-18T02:59:47;98408.41;;;18.13;88.93
65756;BME280;69208;47.502;18.940;2023-09-18T03:00:50;98408.41;;;18.13;89.12
65756;BME280;69208;47.502;18.940;2023-09-18T03:01:53;98422.69;;;18.08;89.43
65756;BME280;69208;47.502;18.940;2023-09-18T03:02:56;98417.97;;;18.02;89.75
65756;BME280;69208;47.502;18.940;2023-09-18T03:03:58;98421.28;;;17.99;90.02
65756;BME280;69208;47.502;18.940;2023-09-18T03:05:02;98416.75;;;17.99;90.15
65756;BME280;69208;47.502;18.940;2023-09-18T03:06:05;98416.97;;;17.94;90.84
65756;BME280;69208;47.502;18.940;2023-09-18T03:07:09;98415.75;;;17.91;90.89
65756;BME280;69208;47.502;18.940;2023-09-18T03:08:13;98412.12;;;17.84;90.97
65756;BME280;69208;47.502;18.940;2023-09-18T03:09:16;98411.69;;;17.82;91.14
65756;BME280;69208;47.502;18.940;2023-09-18T03:10:19;98417.66;;;17.79;91.38
65756;BME280;69208;47.502;18.940;2023-09-18T03:11:22;98405.94;;;17.80;91.29
65756;BME280;69208;47.502;18.940;2023-09-18T03:12:30;98417.53;;;17.75;91.58
65756;BME280;69208;47.502;18.940;2023-09-18T03:13:33;98417.28;;;17.68;91.94
65756;BME280;69208;47.502;18.940;2023-09-18T03:14:36;98414.63;;;17.68;92.03
65756;BME280;69208;47.502;18.940;2023-09-18T03:15:39;98408.94;;;17.78;91.40
65756;BME280;69208;47.502;18.940;2023-09-18T03:16:42;98404.81;;;17.93;90.40
65756;BME280;69208;47.502;18.940;2023-09-18T03:17:45;98410.44;;;17.91;90.40
65756;BME280;69208;47.502;18.940;2023-09-18T03:18:48;98403.16;;;17.88;90.66
65756;BME280;69208;47.502;18.940;2023-09-18T03:19:52;98410.66;;;17.86;90.99
65756;BME280;69208;47.502;18.940;2023-09-18T03:20:55;98397.41;;;17.86;91.14
65756;BME280;69208;47.502;18.940;2023-09-18T03:21:58;98404.59;;;17.86;91.16
65756;BME280;69208;47.502;18.940;2023-09-18T03:23:02;98409.34;;;17.80;91.50
65756;BME280;69208;47.502;18.940;2023-09-18T03:24:05;98404.38;;;17.66;91.73
65756;BME280;69208;47.502;18.940;2023-09-18T03:25:08;98401.75;;;17.66;91.77
65756;BME280;69208;47.502;18.940;2023-09-18T03:26:12;98400.16;;;17.65;92.23
65756;BME280;69208;47.502;18.940;2023-09-18T03:27:16;98406.25;;;17.54;92.97
65756;BME280;69208;47.502;18.940;2023-09-18T03:28:19;98393.56;;;17.47;93.60
65756;BME280;69208;47.502;18.940;2023-09-18T03:29:22;98390.91;;;17.47;93.67
65756;BME280;69208;47.502;18.940;2023-09-18T03:30:25;98401.50;;;17.47;93.46
65756;BME280;69208;47.502;18.940;2023-09-18T03:31:28;98394.47;;;17.51;93.25
65756;BME280;69208;47.502;18.940;2023-09-18T03:32:32;98390.25;;;17.50;93.30
65756;BME280;69208;47.502;18.940;2023-09-18T03:33:35;98398.66;;;17.52;93.23
65756;BME280;69208;47.502;18.940;2023-09-18T03:34:38;98395.91;;;17.48;93.28
65756;BME280;69208;47.502;18.940;2023-09-18T03:35:48;98392.69;;;17.43;93.42
65756;BME280;69208;47.502;18.940;2023-09-18T03:36:52;98392.91;;;17.38;93.67
65756;BME280;69208;47.502;18.940;2023-09-18T03:37:56;98394.44;;;17.26;94.33
65756;BME280;69208;47.502;18.940;2023-09-18T03:38:59;98395.19;;;17.27;94.43
65756;BME280;69208;47.502;18.940;2023-09-18T03:40:02;98388.47;;;17.29;94.28
65756;BME280;69208;47.502;18.940;2023-09-18T03:41:05;98401.28;;;17.27;94.50
65756;BME280;69208;47.502;18.940;2023-09-18T03:42:08;98399.16;;;17.21;95.04
65756;BME280;69208;47.502;18.940;2023-09-18T03:43:11;98393.56;;;17.22;95.02
65756;BME280;69208;47.502;18.940;2023-09-18T03:44:15;98402.06;;;17.28;94.88
65756;BME280;69208;47.502;18.940;2023-09-18T03:45:19;98405.03;;;17.26;94.95
65756;BME280;69208;47.502;18.940;2023-09-18T03:46:22;98398.75;;;17.31;94.76
65756;BME280;69208;47.502;18.940;2023-09-18T03:47:25;98402.81;;;17.28;94.94
65756;BME280;69208;47.502;18.940;2023-09-18T03:48:29;98397.75;;;17.23;95.12
65756;BME280;69208;47.502;18.940;2023-09-18T03:49:38;98395.75;;;17.20;95.38
65756;BME280;69208;47.502;18.940;2023-09-18T03:50:41;98394.41;;;17.14;95.68
65756;BME280;69208;47.502;18.940;2023-09-18T03:51:44;98398.50;;;17.12;95.55
65756;BME280;69208;47.502;18.940;2023-09-18T03:52:47;98394.78;;;17.13;95.35
65756;BME280;69208;47.502;18.940;2023-09-18T03:53:50;98396.84;;;17.07;95.44
65756;BME280;69208;47.502;18.940;2023-09-18T03:54:53;98396.50;;;17.09;95.37
65756;BME280;69208;47.502;18.940;2023-09-18T03:55:56;98396.50;;;17.09;95.23
65756;BME280;69208;47.502;18.940;2023-09-18T03:56:59;98390.22;;;17.01;95.72
65756;BME280;69208;47.502;18.940;2023-09-18T03:58:03;98392.31;;;16.95;95.95
65756;BME280;69208;47.502;18.940;2023-09-18T03:59:07;98394.19;;;16.95;95.89
65756;BME280;69208;47.502;18.940;2023-09-18T04:00:10;98389.19;;;16.81;96.50
65756;BME280;69208;47.502;18.940;2023-09-18T04:01:13;98387.50;;;16.76;96.82
65756;BME280;69208;47.502;18.940;2023-09-18T04:02:16;98388.91;;;16.74;97.06
65756;BME280;69208;47.502;18.940;2023-09-18T04:03:19;98388.28;;;16.77;96.85
65756;BME280;69208;47.502;18.940;2023-09-18T04:04:23;98387.50;;;16.76;96.67
65756;BME280;69208;47.502;18.940;2023-09-18T04:05:26;98385.25;;;16.66;96.65
65756;BME280;69208;47.502;18.940;2023-09-18T04:06:42;98381.56;;;16.58;96.95
65756;BME280;69208;47.502;18.940;2023-09-18T04:07:46;98389.19;;;16.60;97.02
65756;BME280;69208;47.502;18.940;2023-09-18T04:08:50;98381.66;;;16.50;98.05
65756;BME280;69208;47.502;18.940;2023-09-18T04:09:54;98378.44;;;16.44;98.18
65756;BME280;69208;47.502;18.940;2023-09-18T04:10:56;98382.84;;;16.40;97.83
65756;BME280;69208;47.502;18.940;2023-09-18T04:12:04;98383.28;;;16.42;98.08
65756;BME280;69208;47.502;18.940;2023-09-18T04:13:10;98385.94;;;16.42;98.46
65756;BME280;69208;47.502;18.940;2023-09-18T04:14:13;98390.88;;;16.44;98.52
65756;BME280;69208;47.502;18.940;2023-09-18T04:15:18;98379.47;;;16.52;98.06
65756;BME280;69208;47.502;18.940;2023-09-18T04:16:21;98382.00;;;16.48;98.49
65756;BME280;69208;47.502;18.940;2023-09-18T04:17:24;98378.13;;;16.46;98.68
65756;BME280;69208;47.502;18.940;2023-09-18T04:18:27;98381.09;;;16.44;99.04
65756;BME280;69208;47.502;18.940;2023-09-18T04:19:30;98374.25;;;16.43;99.05
65756;BME280;69208;47.502;18.940;2023-09-18T04:20:33;98377.25;;;16.42;98.91
65756;BME280;69208;47.502;18.940;2023-09-18T04:21:38;98375.47;;;16.46;98.53
65756;BME280;69208;47.502;18.940;2023-09-18T04:22:46;98372.72;;;16.42;98.26
65756;BME280;69208;47.502;18.940;2023-09-18T04:23:53;98370.91;;;16.34;98.65
65756;BME280;69208;47.502;18.940;2023-09-18T04:25:00;98371.69;;;16.34;98.47
65756;BME280;69208;47.502;18.940;2023-09-18T04:26:03;98367.25;;;16.26;98.84
65756;BME280;69208;47.502;18.940;2023-09-18T04:27:06;98371.88;;;16.29;98.67
65756;BME280;69208;47.502;18.940;2023-09-18T04:28:09;98371.56;;;16.31;98.17
65756;BME280;69208;47.502;18.940;2023-09-18T04:29:12;98363.50;;;16.27;98.45
65756;BME280;69208;47.502;18.940;2023-09-18T04:30:15;98362.94;;;16.22;98.77
65756;BME280;69208;47.502;18.940;2023-09-18T04:31:20;98362.03;;;16.18;98.82
65756;BME280;69208;47.502;18.940;2023-09-18T04:32:23;98361.06;;;16.22;98.67
65756;BME280;69208;47.502;18.940;2023-09-18T04:33:27;98360.72;;;16.24;98.66
65756;BME280;69208;47.502;18.940;2023-09-18T04:34:32;98369.44;;;16.24;98.68
65756;BME280;69208;47.502;18.940;2023-09-18T04:35:35;98362.16;;;16.21;98.94
65756;BME280;69208;47.502;18.940;2023-09-18T04:36:39;98360.28;;;16.22;99.04
65756;BME280;69208;47.502;18.940;2023-09-18T04:37:42;98370.78;;;16.30;98.86
65756;BME280;69208;47.502;18.940;2023-09-18T04:38:45;98369.44;;;16.24;98.91
65756;BME280;69208;47.502;18.940;2023-09-18T04:39:47;98370.09;;;16.21;99.17
65756;BME280;69208;47.502;18.940;2023-09-18T04:40:58;98367.88;;;16.23;99.01
65756;BME280;69208;47.502;18.940;2023-09-18T04:42:01;98379.38;;;16.27;98.58
65756;BME280;69208;47.502;18.940;2023-09-18T04:43:06;98372.97;;;16.28;98.61
65756;BME280;69208;47.502;18.940;2023-09-18T04:44:09;98367.56;;;16.25;98.96
65756;BME280;69208;47.502;18.940;2023-09-18T04:45:15;98370.22;;;16.25;98.86
65756;BME280;69208;47.502;18.940;2023-09-18T04:46:18;98371.00;;;16.25;98.98
65756;BME280;69208;47.502;18.940;2023-09-18T04:47:21;98372.97;;;16.28;98.66
65756;BME280;69208;47.502;18.940;2023-09-18T04:48:24;98374.97;;;16.31;98.31
65756;BME280;69208;47.502;18.940;2023-09-18T04:49:27;98376.59;;;16.24;98.60
65756;BME280;69208;47.502;18.940;2023-09-18T04:50:30;98370.53;;;16.23;98.81
65756;BME280;69208;47.502;18.940;2023-09-18T04:51:34;98370.53;;;16.23;98.81
65756;BME280;69208;47.502;18.940;2023-09-18T04:52:37;98368.09;;;16.18;99.17
65756;BME280;69208;47.502;18.940;2023-09-18T04:53:40;98371.63;;;16.22;99.22
65756;BME280;69208;47.502;18.940;2023-09-18T04:54:43;98370.22;;;16.25;98.85
65756;BME280;69208;47.502;18.940;2023-09-18T04:55:47;98359.38;;;16.18;99.26
65756;BME280;69208;47.502;18.940;2023-09-18T04:56:53;98368.28;;;16.13;99.51
65756;BME280;69208;47.502;18.940;2023-09-18T04:57:57;98358.81;;;16.12;99.61
65756;BME280;69208;47.502;18.940;2023-09-18T04:59:01;98363.78;;;16.13;99.50
65756;BME280;69208;47.502;18.940;2023-09-18T05:00:04;98359.25;;;16.14;99.49
65756;BME280;69208;47.502;18.940;2023-09-18T05:01:19;98351.97;;;16.11;100.00
65756;BME280;69208;47.502;18.940;2023-09-18T05:02:22;98357.59;;;16.09;100.00
65756;BME280;69208;47.502;18.940;2023-09-18T05:03:25;98355.84;;;16.13;100.00
65756;BME280;69208;47.502;18.940;2023-09-18T05:04:32;98357.53;;;16.18;100.00
65756;BME280;69208;47.502;18.940;2023-09-18T05:05:35;98359.72;;;16.16;100.00
65756;BME280;69208;47.502;18.940;2023-09-18T05:06:38;98360.94;;;16.19;100.00
65756;BME280;69208;47.502;18.940;2023-09-18T05:07:42;98367.00;;;16.19;100.00
65756;BME280;69208;47.502;18.940;2023-09-18T05:08:45;98364.34;;;16.19;100.00
65756;BME280;69208;47.502;18.940;2023-09-18T05:09:48;98365.69;;;16.25;100.00
65756;BME280;69208;47.502;18.940;2023-09-18T05:10:51;98362.59;;;16.23;100.00
65756;BME280;69208;47.502;18.940;2023-09-18T05:11:54;98363.28;;;16.32;100.00
65756;BME280;69208;47.502;18.940;2023-09-18T05:12:57;98358.66;;;16.29;100.00
65756;BME280;69208;47.502;18.940;2023-09-18T05:14:03;98363.00;;;16.34;100.00
65756;BME280;69208;47.502;18.940;2023-09-18T05:15:08;98358.28;;;16.40;100.00
65756;BME280;69208;47.502;18.940;2023-09-18T05:16:12;98362.25;;;16.46;100.00
65756;BME280;69208;47.502;18.940;2023-09-18T05:17:17;98363.37;;;16.45;100.00
65756;BME280;69208;47.502;18.940;2023-09-18T05:18:20;98368.00;;;16.48;100.00
65756;BME280;69208;47.502;18.940;2023-09-18T05:19:23;98358.97;;;16.49;100.00
65756;BME280;69208;47.502;18.940;2023-09-18T05:20:27;98363.84;;;16.59;100.00
65756;BME280;69208;47.502;18.940;2023-09-18T05:21:31;98369.13;;;16.59;100.00
65756;BME280;69208;47.502;18.940;2023-09-18T05:22:34;98369.91;;;16.59;100.00
65756;BME280;69208;47.502;18.940;2023-09-18T05:23:37;98362.97;;;16.67;100.00
65756;BME280;69208;47.502;18.940;2023-09-18T05:24:40;98372.78;;;16.67;99.44
65756;BME280;69208;47.502;18.940;2023-09-18T05:25:42;98369.13;;;16.59;99.81
65756;BME280;69208;47.502;18.940;2023-09-18T05:26:46;98378.16;;;16.58;99.87
65756;BME280;69208;47.502;18.940;2023-09-18T05:27:49;98380.81;;;16.58;100.00
65756;BME280;69208;47.502;18.940;2023-09-18T05:28:58;98379.69;;;16.59;100.00
65756;BME280;69208;47.502;18.940;2023-09-18T05:30:01;98373.75;;;16.62;100.00
65756;BME280;69208;47.502;18.940;2023-09-18T05:31:04;98371.91;;;16.63;100.00
65756;BME280;69208;47.502;18.940;2023-09-18T05:32:07;98374.97;;;16.65;100.00
65756;BME280;69208;47.502;18.940;2023-09-18T05:33:10;98374.34;;;16.68;99.92
65756;BME280;69208;47.502;18.940;2023-09-18T05:34:13;98382.84;;;16.73;99.69
65756;BME280;69208;47.502;18.940;2023-09-18T05:35:16;98382.06;;;16.73;99.79
65756;BME280;69208;47.502;18.940;2023-09-18T05:36:20;98376.78;;;16.73;99.87
65756;BME280;69208;47.502;18.940;2023-09-18T05:37:23;98378.50;;;16.77;99.61